Time;durP1;ratioP1;P1;durP2;ratioP2;P2;SDS_P1;SDS_P2;PMS_P1;PMS_P2;Temp;Humidity;BMP_temperature;BMP_pressure;BME280_temperature;BME280_humidity;BME280_pressure;Samples;Min_cycle;Max_cycle;Signal;HPM_P1;HPM_P2
2022/07/02 00:01:21;;;;;;;3.47;3.17;;;;;;;14.36;72.85;100932.03;5120093;28;20506;-63
2022/07/02 00:03:51;;;;;;;4.17;3.13;;;;;;;14.33;73.13;100935.84;5120573;28;20896;-63
2022/07/02 00:06:19;;;;;;;4.07;3.30;;;;;;;14.27;73.15;100934.59;5119257;28;20478;-63
2022/07/02 00:08:46;;;;;;;3.63;3.20;;;;;;;14.22;73.76;100934.19;5120733;28;20443;-64
2022/07/02 00:11:14;;;;;;;3.70;3.00;;;;;;;14.18;73.59;100940.84;5119630;28;20547;-64
2022/07/02 00:13:41;;;;;;;4.50;2.90;;;;;;;14.11;73.92;100937.06;5120940;28;20422;-64
2022/07/02 00:16:10;;;;;;;4.07;3.30;;;;;;;14.04;74.24;100935.94;5119432;28;20482;-64
2022/07/02 00:18:37;;;;;;;5.23;3.43;;;;;;;14.08;74.49;100935.53;5120104;28;20470;-65
2022/07/02 00:21:05;;;;;;;4.30;3.17;;;;;;;14.05;74.56;100940.34;5119065;28;20537;-64
2022/07/02 00:23:32;;;;;;;4.13;3.17;;;;;;;13.99;74.70;100938.22;5120768;28;20457;-63
2022/07/02 00:26:04;;;;;;;4.97;3.37;;;;;;;13.97;75.09;100932.16;5119226;28;20512;-64
2022/07/02 00:28:33;;;;;;;3.63;3.30;;;;;;;13.93;74.92;100934.28;5120253;28;20477;-64
2022/07/02 00:30:59;;;;;;;3.20;2.90;;;;;;;13.86;75.57;100944.75;5119787;28;20478;-63
2022/07/02 00:33:27;;;;;;;4.30;3.10;;;;;;;13.85;75.64;100942.22;5120969;28;20430;-65
2022/07/02 00:35:53;;;;;;;3.70;2.90;;;;;;;13.84;75.49;100940.53;5130030;27;20508;-65
2022/07/02 00:38:21;;;;;;;5.80;3.30;;;;;;;13.78;75.31;100941.94;5128249;27;20450;-65
2022/07/02 00:40:48;;;;;;;3.53;2.83;;;;;;;13.75;75.60;100942.25;5119697;27;20496;-65
2022/07/02 00:43:15;;;;;;;3.77;3.20;;;;;;;13.74;75.87;100937.88;5120635;28;20442;-65
2022/07/02 00:45:42;;;;;;;3.90;2.60;;;;;;;13.72;76.12;100947.91;5118368;28;21036;-65
2022/07/02 00:48:09;;;;;;;2.87;2.53;;;;;;;13.70;76.01;100948.06;5119508;28;20478;-65
2022/07/02 00:50:35;;;;;;;3.57;2.63;;;;;;;13.67;76.20;100950.19;5123891;27;20638;-65
2022/07/02 00:53:02;;;;;;;4.07;2.60;;;;;;;13.77;75.99;100956.41;5126517;28;20501;-65
2022/07/02 00:55:30;;;;;;;3.10;2.80;;;;;;;13.81;75.96;100947.03;5125820;28;20485;-65
2022/07/02 00:57:57;;;;;;;4.97;2.60;;;;;;;13.80;75.85;100957.94;5126568;28;20508;-65
2022/07/02 01:00:24;;;;;;;4.03;2.87;;;;;;;13.68;76.21;100954.56;5125306;27;20509;-65
2022/07/02 01:02:51;;;;;;;3.10;2.60;;;;;;;13.64;76.77;100953.16;5126940;28;20473;-64
2022/07/02 01:05:19;;;;;;;5.23;2.50;;;;;;;13.51;77.11;100942.72;5125715;28;20442;-64
2022/07/02 01:10:16;;;;;;;3.70;2.57;;;;;;;13.53;77.65;100943.41;5126371;28;20438;-64
2022/07/02 01:10:44;;;;;;;3.97;2.60;;;;;;;13.53;77.73;100936.19;5123984;28;20466;-64
2022/07/02 01:13:12;;;;;;;3.17;2.70;;;;;;;13.55;77.33;100931.53;5126922;28;20529;-64
2022/07/02 01:15:39;;;;;;;3.57;3.00;;;;;;;13.47;77.82;100939.47;5125746;28;20583;-64
2022/07/02 01:18:06;;;;;;;5.00;2.30;;;;;;;13.47;77.96;100931.41;5126014;28;20485;-64
2022/07/02 01:20:33;;;;;;;5.80;3.93;;;;;;;13.47;77.92;100943.97;5124766;28;20466;-65
2022/07/02 01:23:01;;;;;;;4.60;3.07;;;;;;;13.45;78.22;100940.59;5127571;28;20446;-65
2022/07/02 01:25:28;;;;;;;4.13;3.00;;;;;;;13.40;78.20;100927.56;5126066;27;20549;-64
2022/07/02 01:27:54;;;;;;;3.10;2.80;;;;;;;13.36;78.23;100936.91;5126197;28;20451;-64
2022/07/02 01:30:21;;;;;;;3.20;2.90;;;;;;;13.31;78.44;100936.47;5124993;27;20479;-64
2022/07/02 01:32:48;;;;;;;3.73;3.40;;;;;;;13.28;79.17;100937.59;5126151;28;20487;-65
2022/07/02 01:35:15;;;;;;;3.43;3.23;;;;;;;13.27;79.09;100929.69;5124889;28;20477;-64
2022/07/02 01:37:41;;;;;;;3.50;3.20;;;;;;;13.25;79.14;100937.03;5125753;28;20962;-65
2022/07/02 01:40:10;;;;;;;3.60;2.97;;;;;;;13.25;79.51;100931.66;5125095;28;20450;-64
2022/07/02 01:42:37;;;;;;;4.63;3.00;;;;;;;13.18;79.10;100929.53;5119580;28;20453;-64
2022/07/02 01:45:04;;;;;;;5.33;2.93;;;;;;;13.18;79.54;100936.75;5125573;28;20457;-64
2022/07/02 01:47:31;;;;;;;3.83;2.77;;;;;;;13.21;79.30;100932.91;5125337;28;20474;-64
2022/07/02 01:49:58;;;;;;;3.93;3.37;;;;;;;13.15;79.03;100927.13;5125768;28;20946;-64
2022/07/02 01:52:26;;;;;;;3.43;2.60;;;;;;;13.14;79.16;100932.63;5125899;28;20481;-64
2022/07/02 01:54:53;;;;;;;4.20;2.80;;;;;;;13.09;78.65;100934.88;5125440;28;20465;-64
2022/07/02 01:57:21;;;;;;;3.20;2.40;;;;;;;13.07;78.60;100935.06;5125118;28;20469;-63
2022/07/02 01:59:48;;;;;;;3.50;2.70;;;;;;;13.02;78.16;100936.44;5126838;28;20477;-64
2022/07/02 02:02:15;;;;;;;3.73;2.77;;;;;;;12.99;78.86;100935.72;5122973;28;20528;-64
2022/07/02 02:04:41;;;;;;;4.77;3.10;;;;;;;13.06;79.25;100936.03;5123363;28;20471;-64
2022/07/02 02:07:08;;;;;;;6.30;3.07;;;;;;;13.14;80.24;100938.88;5122696;28;20470;-64
2022/07/02 02:09:35;;;;;;;3.53;2.63;;;;;;;13.16;80.17;100936.03;5123278;28;20442;-64
2022/07/02 02:12:02;;;;;;;4.77;3.27;;;;;;;13.12;80.29;100937.28;5122292;28;21101;-64
2022/07/02 02:14:30;;;;;;;4.90;3.60;;;;;;;13.02;80.25;100942.69;5123646;28;20442;-64
2022/07/02 02:16:56;;;;;;;3.70;3.13;;;;;;;13.05;79.78;100933.47;5122006;28;20508;-64
2022/07/02 02:19:23;;;;;;;5.10;3.00;;;;;;;12.91;79.79;100938.25;5122581;28;20446;-63
2022/07/02 02:21:50;;;;;;;5.27;3.53;;;;;;;12.88;79.75;100935.88;5121773;28;20478;-63
2022/07/02 02:24:17;;;;;;;5.07;3.87;;;;;;;12.75;79.95;100938.81;5122513;28;21006;-63
2022/07/02 02:26:43;;;;;;;4.73;3.30;;;;;;;12.82;79.61;100942.63;5121359;28;20485;-63
2022/07/02 02:29:10;;;;;;;4.40;2.93;;;;;;;12.78;79.79;100938.53;5122167;28;20442;-63
2022/07/02 02:31:38;;;;;;;3.57;3.00;;;;;;;12.84;79.30;100930.91;5120949;28;20493;-65
2022/07/02 02:34:05;;;;;;;6.33;3.23;;;;;;;12.89;78.47;100937.56;5122688;28;20457;-66
2022/07/02 02:36:31;;;;;;;6.67;3.00;;;;;;;12.76;78.90;100934.31;5120644;28;20470;-66
2022/07/02 02:38:58;;;;;;;5.00;3.30;;;;;;;12.73;78.88;100940.78;5121757;28;21045;-66
2022/07/02 02:41:25;;;;;;;5.50;4.33;;;;;;;12.72;78.92;100938.22;5120421;28;20504;-66
2022/07/02 02:43:51;;;;;;;4.73;3.53;;;;;;;12.71;79.13;100939.22;5122243;28;20785;-66
2022/07/02 02:46:18;;;;;;;6.30;3.10;;;;;;;12.65;79.74;100937.94;5120498;28;20505;-66
2022/07/02 02:48:46;;;;;;;5.90;3.27;;;;;;;12.75;79.68;100943.31;5121847;28;20535;-65
2022/07/02 02:51:15;;;;;;;4.10;3.00;;;;;;;12.73;79.42;100945.31;5101321;28;21011;-65
2022/07/02 02:53:43;;;;;;;5.37;3.87;;;;;;;12.57;79.67;100948.50;5122608;28;20438;-65
2022/07/02 02:56:10;;;;;;;4.83;3.87;;;;;;;12.59;79.27;100942.00;5121561;28;20480;-65
2022/07/02 02:58:38;;;;;;;3.70;3.30;;;;;;;12.58;79.64;100948.34;5122395;28;20448;-65
2022/07/02 03:01:05;;;;;;;4.30;3.50;;;;;;;12.58;79.35;100942.16;5120811;28;20509;-65
2022/07/02 03:03:32;;;;;;;6.30;3.50;;;;;;;12.65;78.76;100943.28;5122323;28;20454;-65
2022/07/02 03:06:00;;;;;;;6.40;3.80;;;;;;;12.66;78.64;100946.84;5120758;28;20537;-65
2022/07/02 03:08:27;;;;;;;3.40;3.10;;;;;;;12.63;78.57;100959.53;5120700;28;20450;-65
2022/07/02 03:10:54;;;;;;;5.37;3.80;;;;;;;12.55;78.80;100962.06;5120087;28;20482;-65
2022/07/02 03:13:20;;;;;;;4.73;3.13;;;;;;;12.57;79.04;100959.25;5121587;28;20439;-65
2022/07/02 03:15:47;;;;;;;3.43;3.13;;;;;;;12.56;78.95;100961.06;5120164;28;20473;-65
2022/07/02 03:18:14;;;;;;;5.20;3.97;;;;;;;12.56;78.81;100958.38;5121064;28;21023;-65
2022/07/02 03:20:40;;;;;;;5.90;4.30;;;;;;;12.63;79.02;100956.00;5119377;28;20477;-65
2022/07/02 03:23:08;;;;;;;4.47;3.40;;;;;;;12.63;78.68;100962.19;5121145;28;20438;-65
2022/07/02 03:25:35;;;;;;;5.43;4.30;;;;;;;12.67;78.63;100968.13;5119639;28;20481;-65
2022/07/02 03:28:02;;;;;;;5.03;3.57;;;;;;;13.47;76.67;100973.53;5120926;28;20488;-65
2022/07/02 03:30:28;;;;;;;5.07;3.70;;;;;;;14.25;72.69;100976.06;5120129;28;20462;-64
2022/07/02 03:32:55;;;;;;;5.33;3.53;;;;;;;14.74;69.82;100984.84;5121227;28;20434;-65
2022/07/02 03:35:22;;;;;;;6.73;3.47;;;;;;;14.61;69.45;100985.16;5119319;28;20549;-64
2022/07/02 03:37:48;;;;;;;3.70;3.00;;;;;;;14.06;70.89;100977.84;5120815;28;20847;-64
2022/07/02 03:40:16;;;;;;;6.30;3.23;;;;;;;14.64;70.44;100973.25;5120093;28;20579;-64
2022/07/02 03:42:43;;;;;;;4.23;3.20;;;;;;;16.43;64.62;100969.59;5120598;28;20434;-65
2022/07/02 03:45:10;;;;;;;4.40;3.17;;;;;;;17.59;59.65;100968.91;5119484;28;20446;-64
2022/07/02 03:47:37;;;;;;;3.70;2.60;;;;;;;18.88;55.00;100966.25;5120234;28;20461;-64
2022/07/02 03:50:05;;;;;;;3.37;3.07;;;;;;;19.52;52.35;100969.56;5120296;28;20526;-65
2022/07/02 03:52:31;;;;;;;3.97;2.67;;;;;;;20.16;50.43;100976.47;5119876;28;20539;-65
2022/07/02 03:54:58;;;;;;;2.50;2.30;;;;;;;20.72;48.31;100976.00;5120410;28;20494;-65
2022/07/02 03:57:26;;;;;;;2.90;2.50;;;;;;;20.59;48.40;100979.38;5120611;28;20478;-65
2022/07/02 03:59:52;;;;;;;3.20;2.33;;;;;;;20.79;48.11;100971.50;5120449;28;20475;-65
2022/07/02 04:02:19;;;;;;;4.80;2.60;;;;;;;21.23;46.86;100969.69;5119944;28;20482;-64
2022/07/02 04:04:46;;;;;;;10.30;2.30;;;;;;;22.14;44.60;100967.16;5120626;28;20442;-64
2022/07/02 04:07:12;;;;;;;3.30;2.70;;;;;;;20.74;47.10;100970.38;5120224;28;20478;-64
2022/07/02 04:09:39;;;;;;;3.57;2.63;;;;;;;21.20;46.23;100972.81;5119614;28;20454;-67
2022/07/02 04:12:07;;;;;;;3.70;2.53;;;;;;;20.97;47.05;100984.69;5120305;28;20518;-65
2022/07/02 04:14:35;;;;;;;3.67;2.20;;;;;;;20.79;47.55;100987.81;5120359;28;20453;-65
2022/07/02 04:17:01;;;;;;;3.00;2.70;;;;;;;20.74;47.79;100983.97;5119277;28;20498;-66
2022/07/02 04:19:28;;;;;;;2.87;2.37;;;;;;;20.45;48.35;100985.63;5119976;28;20457;-65
2022/07/02 04:21:55;;;;;;;5.53;2.70;;;;;;;20.30;48.40;100982.94;5119076;28;20466;-65
2022/07/02 04:24:22;;;;;;;5.60;2.93;;;;;;;21.03;47.53;100991.22;5118732;28;20462;-66
2022/07/02 04:26:48;;;;;;;3.20;2.20;;;;;;;21.67;46.14;100987.75;5119750;28;20477;-66
2022/07/02 04:29:15;;;;;;;7.90;2.80;;;;;;;21.32;46.11;100992.16;5120758;28;20537;-66
2022/07/02 04:31:43;;;;;;;3.43;2.43;;;;;;;21.30;46.44;100996.94;5119290;28;20481;-68
2022/07/02 04:34:10;;;;;;;3.30;2.43;;;;;;;21.47;45.85;100987.53;5111364;28;20614;-68
2022/07/02 04:36:37;;;;;;;3.53;2.30;;;;;;;21.41;45.52;100991.84;5118810;28;20994;-69
2022/07/02 04:39:04;;;;;;;4.43;2.40;;;;;;;22.37;43.50;100994.13;5119779;28;20450;-68
2022/07/02 04:41:31;;;;;;;3.47;2.60;;;;;;;22.03;44.69;100996.81;5119024;28;20493;-68
2022/07/02 04:43:57;;;;;;;3.87;2.60;;;;;;;21.80;44.89;100985.13;5120380;28;20438;-68
2022/07/02 04:46:24;;;;;;;4.10;2.50;;;;;;;21.61;45.36;100993.94;5118752;28;20989;-68
2022/07/02 04:48:52;;;;;;;4.00;2.20;;;;;;;22.17;44.47;100995.88;5118755;28;20501;-67
2022/07/02 04:51:19;;;;;;;3.97;2.70;;;;;;;21.74;46.04;101007.69;5118525;28;20469;-67
2022/07/02 04:53:46;;;;;;;4.17;2.17;;;;;;;21.84;45.60;101001.06;5119229;28;20438;-67
2022/07/02 04:56:12;;;;;;;5.77;2.83;;;;;;;22.16;44.89;101005.09;5118764;28;20499;-68
2022/07/02 04:58:39;;;;;;;4.80;2.40;;;;;;;22.98;42.61;101017.09;5119784;28;20501;-67
2022/07/02 05:01:06;;;;;;;2.77;2.33;;;;;;;22.23;44.47;101010.59;5118419;28;21065;-67
2022/07/02 05:03:32;;;;;;;5.97;2.60;;;;;;;22.36;44.31;101013.44;5120027;28;20528;-66
2022/07/02 05:06:00;;;;;;;3.93;2.07;;;;;;;22.85;42.77;101012.44;5118675;28;20470;-68
2022/07/02 05:08:27;;;;;;;4.57;2.33;;;;;;;23.21;41.71;101011.34;5119385;28;20454;-66
2022/07/02 05:10:54;;;;;;;3.67;2.60;;;;;;;23.37;41.75;101012.84;5118365;28;20994;-68
2022/07/02 05:13:21;;;;;;;3.03;2.37;;;;;;;23.82;40.50;101012.31;5119451;28;20442;-67
2022/07/02 05:15:48;;;;;;;4.03;2.03;;;;;;;23.09;42.40;101016.53;5118227;28;20554;-67
2022/07/02 05:18:15;;;;;;;3.90;2.00;;;;;;;23.20;42.41;101015.09;5119765;28;20474;-67
2022/07/02 05:20:42;;;;;;;6.10;2.60;;;;;;;23.39;42.18;101015.38;5117782;28;21261;-68
2022/07/02 05:23:10;;;;;;;2.30;2.10;;;;;;;23.91;41.22;101007.47;5119974;28;20438;-68
2022/07/02 05:25:37;;;;;;;5.47;2.63;;;;;;;23.40;41.91;101006.13;5118636;28;20474;-68
2022/07/02 05:28:03;;;;;;;2.83;2.03;;;;;;;23.84;40.75;101012.94;5120416;28;20451;-67
2022/07/02 05:30:30;;;;;;;3.50;2.40;;;;;;;23.69;41.60;101011.19;5119157;28;20546;-71
2022/07/02 05:32:57;;;;;;;4.63;2.27;;;;;;;23.59;41.38;101015.38;5120070;28;20457;-68
2022/07/02 05:35:23;;;;;;;2.40;2.17;;;;;;;23.47;41.83;101012.44;5118630;28;21037;-68
2022/07/02 05:37:50;;;;;;;4.47;2.03;;;;;;;23.30;42.88;101012.81;5121682;28;20477;-68
2022/07/02 05:40:18;;;;;;;6.87;2.63;;;;;;;24.01;41.06;101011.47;5122790;28;20446;-67
2022/07/02 05:42:45;;;;;;;3.03;2.30;;;;;;;23.45;42.78;101012.66;5123824;28;20522;-67
2022/07/02 05:45:11;;;;;;;3.30;2.30;;;;;;;24.67;40.10;101009.69;5123025;28;20449;-69
2022/07/02 05:47:38;;;;;;;5.00;2.60;;;;;;;24.87;39.52;101006.88;5122817;28;20817;-68
2022/07/02 05:50:06;;;;;;;5.43;2.30;;;;;;;25.63;38.37;101009.84;5123026;28;20495;-68
2022/07/02 05:52:32;;;;;;;3.17;2.20;;;;;;;25.79;37.83;101006.53;5123429;28;20466;-68
2022/07/02 05:54:59;;;;;;;2.60;1.90;;;;;;;25.45;39.23;101018.78;5123039;28;20959;-69
2022/07/02 05:57:27;;;;;;;2.50;2.07;;;;;;;25.16;39.76;101015.56;5122335;28;21045;-69
2022/07/02 05:59:55;;;;;;;7.27;2.43;;;;;;;25.52;38.79;101011.41;5123043;28;20438;-70
2022/07/02 06:02:22;;;;;;;4.80;2.37;;;;;;;25.77;38.71;101016.88;5122525;28;20484;-68
2022/07/02 06:04:49;;;;;;;3.60;1.67;;;;;;;27.30;36.32;101013.63;5123180;28;20492;-67
2022/07/02 06:09:59;;;;;;;4.37;1.60;;;;;;;28.92;32.33;101020.53;5123051;28;20437;-68
2022/07/02 06:12:27;;;;;;;2.40;1.37;;;;;;;29.39;32.22;101018.69;5122256;28;20498;-68
2022/07/02 06:14:54;;;;;;;3.80;1.80;;;;;;;28.06;34.23;101023.00;5122957;28;20446;-68
2022/07/02 06:17:21;;;;;;;3.70;2.23;;;;;;;27.19;36.81;101016.06;5122461;28;20474;-68
2022/07/02 06:19:48;;;;;;;6.80;1.83;;;;;;;27.32;35.83;101020.53;5122185;28;20456;-68
2022/07/02 06:22:15;;;;;;;4.13;1.60;;;;;;;27.95;34.91;101024.69;5121579;28;20833;-68
2022/07/02 06:24:42;;;;;;;6.30;1.60;;;;;;;28.18;34.84;101021.09;5122963;28;20442;-68
2022/07/02 06:27:08;;;;;;;5.50;2.03;;;;;;;26.68;37.89;101029.16;5122752;28;20473;-68
2022/07/02 06:29:36;;;;;;;3.67;2.00;;;;;;;27.48;35.80;101032.78;5121812;28;20942;-69
2022/07/02 06:32:04;;;;;;;3.87;1.50;;;;;;;27.21;36.87;101035.88;5121398;28;20549;-69
2022/07/02 06:34:30;;;;;;;2.07;1.30;;;;;;;27.11;37.17;101038.31;5122877;28;20450;-69
2022/07/02 06:36:57;;;;;;;3.10;1.50;;;;;;;27.30;36.34;101036.41;5121487;28;20470;-67
2022/07/02 06:39:25;;;;;;;2.30;1.60;;;;;;;27.31;36.73;101038.09;5121602;28;20472;-69
2022/07/02 06:44:37;;;;;;;2.47;1.70;;;;;;;28.59;34.70;101036.88;5123103;28;20441;-69
2022/07/02 06:47:04;;;;;;;3.30;1.60;;;;;;;28.97;31.84;101029.97;5120256;28;20545;-69
2022/07/02 06:49:31;;;;;;;4.87;2.07;;;;;;;29.78;31.28;101036.22;5121796;28;20503;-68
2022/07/02 06:51:57;;;;;;;3.43;1.50;;;;;;;30.86;27.90;101042.53;5121435;28;20494;-69
2022/07/02 06:54:24;;;;;;;1.40;1.00;;;;;;;31.82;27.12;101033.66;5122318;28;20441;-69
2022/07/02 06:56:51;;;;;;;2.30;1.30;;;;;;;29.95;29.28;101029.91;5121096;28;20505;-68
2022/07/02 06:59:17;;;;;;;1.93;1.00;;;;;;;31.15;26.78;101035.72;5121994;28;20516;-68
2022/07/02 07:01:45;;;;;;;2.50;1.00;;;;;;;29.73;27.98;101038.88;5122062;28;20915;-69
2022/07/02 07:04:12;;;;;;;3.30;1.10;;;;;;;30.12;25.47;101030.72;5122509;28;20438;-68
2022/07/02 07:06:38;;;;;;;2.40;1.03;;;;;;;29.18;27.06;101026.56;5120987;28;20474;-69
2022/07/02 07:09:05;;;;;;;3.30;1.17;;;;;;;29.68;26.89;101036.03;5121741;28;20499;-69
2022/07/02 07:11:32;;;;;;;1.60;0.90;;;;;;;29.46;26.72;101039.50;5121179;28;20490;-69
2022/07/02 07:13:59;;;;;;;4.17;1.30;;;;;;;30.03;25.61;101040.50;5121297;28;21773;-68
2022/07/02 07:16:25;;;;;;;3.50;1.70;;;;;;;28.89;27.02;101036.72;5118938;28;20870;-68
2022/07/02 07:18:54;;;;;;;2.23;1.33;;;;;;;29.07;27.15;101038.44;5122252;28;20865;-69
2022/07/02 07:21:21;;;;;;;5.37;1.47;;;;;;;28.36;27.82;101041.28;5121397;28;20508;-68
2022/07/02 07:23:47;;;;;;;2.77;1.43;;;;;;;28.79;27.19;101045.59;5122306;28;20434;-67
2022/07/02 07:26:14;;;;;;;6.77;1.27;;;;;;;28.46;28.31;101048.94;5120491;28;20497;-68
2022/07/02 07:28:41;;;;;;;3.67;1.70;;;;;;;29.65;26.24;101045.63;5121858;28;20481;-69
2022/07/02 07:31:07;;;;;;;2.70;1.13;;;;;;;29.11;26.81;101048.72;5121152;28;20478;-69
2022/07/02 07:33:34;;;;;;;3.27;1.23;;;;;;;28.84;26.70;101045.69;5121684;28;20967;-69
2022/07/02 07:36:02;;;;;;;3.13;1.20;;;;;;;29.51;26.16;101052.53;5119492;28;20855;-68
2022/07/02 07:38:29;;;;;;;2.40;0.97;;;;;;;29.82;25.26;101053.94;5116238;28;20978;-68
2022/07/02 07:40:56;;;;;;;2.90;1.40;;;;;;;28.54;27.21;101048.59;5120461;28;20623;-67
2022/07/02 07:43:23;;;;;;;5.60;1.40;;;;;;;30.24;25.61;101058.19;5122160;28;20504;-67
2022/07/02 07:45:49;;;;;;;2.50;1.30;;;;;;;30.31;24.73;101058.00;5119674;28;20481;-70
2022/07/02 07:48:16;;;;;;;3.87;1.70;;;;;;;30.11;25.52;101050.28;5121275;28;20519;-62
2022/07/02 07:50:43;;;;;;;3.70;1.50;;;;;;;29.88;25.79;101060.38;5119608;28;20481;-66
2022/07/02 07:53:11;;;;;;;3.93;1.00;;;;;;;31.31;25.03;101056.06;5121095;28;20487;-66
2022/07/02 07:55:38;;;;;;;2.93;1.10;;;;;;;30.01;26.00;101046.25;5120350;28;20519;-66
2022/07/02 07:58:04;;;;;;;3.40;1.40;;;;;;;30.37;24.57;101046.00;5121167;28;20505;-66
2022/07/02 08:00:31;;;;;;;3.20;1.20;;;;;;;30.12;26.05;101050.03;5120246;28;20527;-65
2022/07/02 08:02:58;;;;;;;2.57;1.13;;;;;;;29.52;25.73;101045.13;5121992;28;20434;-65
2022/07/02 08:05:25;;;;;;;3.13;1.20;;;;;;;31.19;23.22;101046.25;5120272;28;20453;-66
2022/07/02 08:07:52;;;;;;;3.70;1.23;;;;;;;30.09;24.60;101053.28;5120666;28;20452;-66
2022/07/02 08:10:20;;;;;;;3.90;1.00;;;;;;;30.62;24.42;101047.47;5120539;28;20482;-66
2022/07/02 08:12:47;;;;;;;1.73;0.97;;;;;;;31.30;23.15;101048.88;5120621;28;20560;-66
2022/07/02 08:15:14;;;;;;;2.40;0.90;;;;;;;31.02;23.72;101049.94;5117985;28;20439;-66
2022/07/02 08:17:41;;;;;;;3.77;1.20;;;;;;;30.33;24.32;101045.66;5118561;28;20874;-66
2022/07/02 08:20:09;;;;;;;3.17;1.10;;;;;;;32.20;22.13;101048.31;5118890;28;20450;-65
2022/07/02 08:22:36;;;;;;;3.77;1.30;;;;;;;31.60;22.54;101039.25;5117971;28;20503;-67
2022/07/02 08:25:03;;;;;;;2.00;0.90;;;;;;;30.93;24.21;101045.97;5121075;28;20430;-66
2022/07/02 08:27:31;;;;;;;2.20;1.20;;;;;;;29.84;24.39;101037.16;5120679;28;20513;-66
2022/07/02 08:29:58;;;;;;;4.27;1.17;;;;;;;31.68;22.63;101047.09;5120623;28;20450;-66
2022/07/02 08:32:26;;;;;;;6.20;1.23;;;;;;;30.49;24.26;101034.88;5119861;28;20557;-67
2022/07/02 08:34:53;;;;;;;2.60;0.83;;;;;;;29.15;25.80;101040.81;5120760;28;20446;-65
2022/07/02 08:37:21;;;;;;;1.93;0.90;;;;;;;30.81;23.83;101048.81;5119292;28;20470;-66
2022/07/02 08:39:48;;;;;;;2.93;1.07;;;;;;;29.73;24.73;101052.66;5118698;28;20508;-66
2022/07/02 08:42:21;;;;;;;3.87;0.97;;;;;;;30.12;24.88;101040.91;5120255;28;20523;-65
2022/07/02 08:44:50;;;;;;;2.07;0.77;;;;;;;29.78;26.02;101039.00;5120959;28;20649;-66
2022/07/02 08:47:17;;;;;;;3.27;1.30;;;;;;;30.24;25.22;101036.13;5118683;28;20572;-66
2022/07/02 08:49:45;;;;;;;1.50;0.67;;;;;;;30.67;23.00;101028.22;5120297;28;20476;-66
2022/07/02 08:52:13;;;;;;;5.40;1.10;;;;;;;30.23;24.89;101028.94;5119605;28;20486;-66
2022/07/02 08:54:39;;;;;;;1.60;1.03;;;;;;;30.03;24.90;101035.84;5120471;28;20553;-66
2022/07/02 08:57:43;;;;;;;3.40;0.80;;;;;;;31.09;23.62;101034.00;5118108;28;20470;-66
2022/07/02 09:00:12;;;;;;;1.63;0.83;;;;;;;31.05;22.79;101032.03;5118703;28;20890;-66
2022/07/02 09:02:39;;;;;;;1.80;0.80;;;;;;;30.29;23.66;101030.69;5120259;28;20430;-66
2022/07/02 09:05:07;;;;;;;1.53;0.70;;;;;;;30.21;24.43;101025.63;5119983;28;20430;-66
2022/07/02 09:07:36;;;;;;;1.77;0.90;;;;;;;30.45;22.90;101028.19;5119468;28;20497;-66
2022/07/02 09:10:04;;;;;;;2.33;0.90;;;;;;;30.38;22.72;101025.59;5119873;28;20513;-65
2022/07/02 09:12:32;;;;;;;4.40;1.40;;;;;;;30.32;23.78;101019.16;5124370;28;20477;-65
2022/07/02 09:14:59;;;;;;;1.60;0.80;;;;;;;29.10;25.16;101022.28;5124553;28;20446;-65
2022/07/02 09:17:27;;;;;;;2.83;0.83;;;;;;;27.84;26.85;101019.97;5123106;28;20485;-66
2022/07/02 09:19:54;;;;;;;1.77;0.83;;;;;;;26.23;28.67;101009.34;5121956;28;20481;-66
2022/07/02 09:22:32;;;;;;;2.33;0.80;;;;;;;25.25;31.52;101008.81;5121529;28;20478;-66
2022/07/02 09:25:07;;;;;;;5.27;1.20;;;;;;;26.94;30.82;101018.91;5121977;27;20485;-66
2022/07/02 09:27:34;;;;;;;2.53;0.93;;;;;;;27.85;28.84;101005.16;5122391;28;20521;-65
2022/07/02 09:30:00;;;;;;;3.97;0.80;;;;;;;27.42;27.95;101006.25;5122821;28;20434;-66
2022/07/02 09:32:29;;;;;;;1.43;0.80;;;;;;;28.64;24.47;101002.06;5122516;27;20482;-66
2022/07/02 09:34:55;;;;;;;1.03;0.43;;;;;;;29.18;22.94;100993.53;5125327;27;20460;-66
2022/07/02 09:37:24;;;;;;;3.37;0.67;;;;;;;29.64;23.75;100994.34;5127581;27;20464;-65
2022/07/02 09:39:52;;;;;;;3.20;0.70;;;;;;;30.31;23.53;101002.84;5118094;28;20481;-66
2022/07/02 09:42:25;;;;;;;1.20;0.70;;;;;;;31.04;21.77;101005.47;5122281;28;20493;-66
2022/07/02 09:44:52;;;;;;;1.30;0.60;;;;;;;30.54;21.53;100994.38;5122498;28;20445;-68
2022/07/02 09:47:32;;;;;;;2.97;0.70;;;;;;;30.16;22.16;100990.50;5121664;28;20505;-68
2022/07/02 09:50:03;;;;;;;2.13;0.60;;;;;;;30.36;22.83;100981.72;5118847;28;20462;-68
2022/07/02 09:52:29;;;;;;;2.40;0.60;;;;;;;30.78;20.84;100985.84;5121106;28;20510;-69
2022/07/02 09:54:56;;;;;;;1.60;0.80;;;;;;;30.22;21.46;100983.13;5122503;28;20454;-68
2022/07/02 09:57:23;;;;;;;1.33;0.57;;;;;;;30.03;21.75;100980.69;5122794;27;20488;-67
2022/07/02 09:59:50;;;;;;;1.70;0.70;;;;;;;30.89;21.29;100990.38;5121868;28;20481;-69
2022/07/02 10:02:22;;;;;;;1.67;0.53;;;;;;;30.96;20.71;100984.69;5122127;27;21029;-70
2022/07/02 10:04:52;;;;;;;1.70;0.80;;;;;;;29.81;21.92;100977.84;5122777;28;20684;-69
2022/07/02 10:07:21;;;;;;;1.60;0.60;;;;;;;29.80;23.04;100978.94;5119712;27;21033;-69
2022/07/02 10:09:48;;;;;;;1.83;0.67;;;;;;;30.03;21.03;100977.06;5125975;27;20483;-69
2022/07/02 10:12:16;;;;;;;2.53;0.63;;;;;;;30.59;21.54;100979.81;5131139;27;20501;-68
2022/07/02 10:14:44;;;;;;;2.50;0.70;;;;;;;31.17;21.37;100978.28;5129674;27;20499;-69
2022/07/02 10:17:11;;;;;;;1.67;0.70;;;;;;;29.56;22.55;100971.88;5128368;27;20541;-68
2022/07/02 10:19:39;;;;;;;1.57;0.53;;;;;;;28.44;25.11;100963.94;5120076;27;20486;-67
2022/07/02 10:22:08;;;;;;;2.20;0.50;;;;;;;29.76;24.27;100957.66;5122964;27;20890;-69
2022/07/02 10:24:36;;;;;;;1.60;0.50;;;;;;;28.85;24.03;100953.78;5130483;27;20785;-68
2022/07/02 10:27:03;;;;;;;3.60;1.00;;;;;;;29.71;24.51;100965.81;5126656;27;20553;-68
2022/07/02 10:29:30;;;;;;;7.50;0.90;;;;;;;30.59;23.15;100966.84;5121864;28;20442;-69
2022/07/02 10:32:03;;;;;;;3.53;0.70;;;;;;;30.10;23.33;100968.63;5120807;28;20505;-68
2022/07/02 10:34:42;;;;;;;3.27;0.60;;;;;;;30.51;23.60;100963.72;5119754;27;20454;-68
2022/07/02 10:37:11;;;;;;;2.60;0.70;;;;;;;30.10;23.82;100965.88;5100395;28;20539;-68
2022/07/02 10:39:42;;;;;;;2.57;0.60;;;;;;;29.86;23.88;100960.56;5101666;28;20489;-69
2022/07/02 10:42:09;;;;;;;5.60;1.20;;;;;;;29.87;24.62;100956.72;5101428;28;20516;-69
2022/07/02 10:44:39;;;;;;;3.10;0.90;;;;;;;30.32;23.52;100955.69;5100950;28;20431;-69
2022/07/02 10:47:06;;;;;;;1.70;0.50;;;;;;;30.90;21.72;100958.06;5100552;28;20475;-70
2022/07/02 10:49:33;;;;;;;1.77;0.60;;;;;;;30.73;23.13;100956.25;5101149;28;21040;-68
2022/07/02 10:52:03;;;;;;;1.37;0.60;;;;;;;29.81;23.71;100950.28;5099278;28;20520;-70
2022/07/02 10:54:34;;;;;;;2.10;0.80;;;;;;;29.84;23.90;100952.53;5102076;28;20507;-69
2022/07/02 10:57:01;;;;;;;3.33;0.53;;;;;;;30.50;23.83;100948.22;5101033;28;20475;-70
2022/07/02 10:59:34;;;;;;;3.90;0.80;;;;;;;29.76;24.27;100950.22;5100189;28;20516;-69
2022/07/02 11:02:02;;;;;;;2.30;0.50;;;;;;;30.19;25.07;100936.75;5101619;28;20501;-69
2022/07/02 11:04:29;;;;;;;1.83;0.60;;;;;;;30.68;23.47;100934.09;5101695;28;20500;-70
2022/07/02 11:07:05;;;;;;;1.40;0.77;;;;;;;31.39;23.59;100944.25;5100262;28;21090;-69
2022/07/02 11:09:32;;;;;;;2.37;0.80;;;;;;;30.65;23.31;100942.06;5101217;28;20744;-69
2022/07/02 11:12:01;;;;;;;1.03;0.50;;;;;;;29.94;24.91;100931.72;5100737;28;20546;-68
2022/07/02 11:14:28;;;;;;;1.10;0.60;;;;;;;30.29;22.35;100933.31;5100695;28;20427;-69
2022/07/02 11:16:56;;;;;;;1.00;0.50;;;;;;;29.34;24.08;100923.06;5099826;28;20486;-69
2022/07/02 11:19:24;;;;;;;1.43;0.50;;;;;;;29.90;24.25;100914.84;5100012;28;20478;-69
2022/07/02 11:21:53;;;;;;;2.73;0.63;;;;;;;30.02;23.12;100923.84;5099399;28;20473;-69
2022/07/02 11:24:22;;;;;;;1.97;0.70;;;;;;;28.67;25.74;100913.53;5101341;28;20526;-68
2022/07/02 11:26:48;;;;;;;3.90;0.70;;;;;;;28.65;25.05;100918.44;5100046;28;20474;-68
2022/07/02 11:29:17;;;;;;;5.33;1.03;;;;;;;29.05;25.83;100916.72;5101013;28;20446;-68
2022/07/02 11:31:46;;;;;;;1.57;0.67;;;;;;;29.38;24.77;100909.63;5100628;28;20474;-69